createdAt,value
2022-08-18T00:01:05.266Z,22.66
2022-08-18T00:03:56.032Z,22.67
2022-08-18T00:06:19.743Z,22.67
2022-08-18T00:08:46.257Z,22.66
2022-08-18T00:11:12.845Z,22.70
2022-08-18T00:13:39.463Z,22.73
2022-08-18T00:16:06.190Z,22.66
2022-08-18T00:18:32.634Z,22.67
2022-08-18T00:20:59.139Z,22.67
2022-08-18T00:23:25.552Z,22.70
2022-08-18T00:25:52.334Z,22.68
2022-08-18T00:28:19.553Z,22.53
2022-08-18T00:30:50.548Z,22.59
2022-08-18T00:33:20.669Z,22.60
2022-08-18T00:35:49.970Z,22.52
2022-08-18T00:38:24.971Z,22.52
2022-08-18T00:40:55.020Z,22.54
2022-08-18T00:43:45.434Z,22.54
2022-08-18T00:46:33.271Z,22.52
2022-08-18T00:49:19.730Z,22.47
2022-08-18T00:52:06.948Z,22.45
2022-08-18T00:54:55.359Z,22.44
2022-08-18T00:57:43.130Z,22.37
2022-08-18T01:00:12.939Z,22.49
2022-08-18T01:02:47.746Z,22.37
2022-08-18T01:05:33.796Z,22.35
2022-08-18T01:08:00.996Z,22.35
2022-08-18T01:10:27.677Z,22.35
2022-08-18T01:12:58.120Z,22.23
2022-08-18T01:15:29.051Z,22.17
2022-08-18T01:18:19.075Z,22.19
2022-08-18T01:21:14.298Z,22.08
2022-08-18T01:23:40.846Z,22.08
2022-08-18T01:26:09.195Z,22.08
2022-08-18T01:28:40.032Z,22.00
2022-08-18T01:31:09.140Z,21.95
2022-08-18T01:33:39.563Z,21.97
2022-08-18T01:36:14.334Z,21.88
2022-08-18T01:38:41.177Z,21.93
2022-08-18T01:41:25.905Z,21.90
2022-08-18T01:43:54.114Z,21.87
2022-08-18T01:46:21.392Z,21.81
2022-08-18T01:48:48.743Z,21.79
2022-08-18T01:51:16.382Z,21.79
2022-08-18T01:53:43.145Z,21.73
2022-08-18T01:56:09.761Z,21.66
2022-08-18T01:58:36.922Z,21.62
2022-08-18T02:01:04.724Z,21.65
2022-08-18T02:03:36.125Z,21.64
2022-08-18T02:06:08.321Z,21.72
2022-08-18T02:08:36.219Z,21.68
2022-08-18T02:11:03.391Z,21.64
2022-08-18T02:13:30.244Z,21.56
2022-08-18T02:15:56.803Z,21.54
2022-08-18T02:18:47.360Z,21.58
2022-08-18T02:21:19.571Z,21.62
2022-08-18T02:23:53.062Z,21.55
2022-08-18T02:26:21.202Z,21.52
2022-08-18T02:28:47.727Z,21.61
2022-08-18T02:31:17.289Z,21.57
2022-08-18T02:33:48.520Z,21.55
2022-08-18T02:36:20.044Z,21.59
2022-08-18T02:38:56.725Z,21.55
2022-08-18T02:41:29.558Z,21.52
2022-08-18T02:43:56.686Z,21.55
2022-08-18T02:46:23.381Z,21.49
2022-08-18T02:48:52.271Z,21.46
2022-08-18T02:51:19.146Z,21.41
2022-08-18T02:53:47.480Z,21.32
2022-08-18T02:56:41.484Z,21.38
2022-08-18T02:59:12.459Z,21.45
2022-08-18T03:01:42.358Z,21.43
2022-08-18T03:04:10.985Z,21.37
2022-08-18T03:06:39.242Z,21.47
2022-08-18T03:09:07.822Z,21.36
2022-08-18T03:11:34.965Z,21.27
2022-08-18T03:14:01.586Z,21.20
2022-08-18T03:16:31.368Z,21.33
2022-08-18T03:18:58.502Z,21.27
2022-08-18T03:21:26.368Z,21.22
2022-08-18T03:24:01.550Z,21.22
2022-08-18T03:26:30.298Z,21.31
2022-08-18T03:28:58.032Z,21.29
2022-08-18T03:31:28.108Z,21.19
2022-08-18T03:33:59.387Z,21.22
2022-08-18T03:36:28.710Z,21.19
2022-08-18T03:38:55.423Z,21.13
2022-08-18T03:41:57.418Z,21.23
2022-08-18T03:44:14.250Z,21.21
2022-08-18T03:46:42.829Z,21.19
2022-08-18T03:49:09.582Z,21.25
2022-08-18T03:51:36.937Z,21.24
2022-08-18T03:54:05.600Z,21.03
2022-08-18T03:56:35.674Z,21.11
2022-08-18T03:59:08.769Z,21.15
2022-08-18T04:01:39.355Z,21.04
2022-08-18T04:04:09.142Z,21.07
2022-08-18T04:06:42.169Z,21.10
2022-08-18T04:09:12.430Z,21.03
2022-08-18T04:11:44.435Z,20.99
2022-08-18T04:14:14.303Z,20.93
2022-08-18T04:16:41.977Z,21.01
2022-08-18T04:19:09.036Z,21.05
2022-08-18T04:21:39.348Z,21.01
2022-08-18T04:24:07.417Z,21.01
2022-08-18T04:26:39.951Z,20.96
2022-08-18T04:29:08.140Z,20.89
2022-08-18T04:31:34.658Z,20.71
2022-08-18T04:34:02.062Z,20.78
2022-08-18T04:36:30.204Z,20.90
2022-08-18T04:38:57.287Z,20.93
2022-08-18T04:41:27.486Z,20.91
2022-08-18T04:43:55.609Z,20.87
2022-08-18T04:46:24.009Z,20.66
2022-08-18T04:48:51.243Z,20.67
2022-08-18T04:52:31.038Z,20.57
2022-08-18T04:54:06.689Z,20.56
2022-08-18T04:56:37.408Z,20.49
2022-08-18T04:59:08.259Z,20.56
2022-08-18T05:01:41.454Z,20.39
2022-08-18T05:04:08.477Z,20.47
2022-08-18T05:06:35.632Z,20.43
2022-08-18T05:09:05.654Z,20.51
2022-08-18T05:11:34.475Z,20.41
2022-08-18T05:14:03.309Z,20.37
2022-08-18T05:16:36.377Z,20.40
2022-08-18T05:19:16.575Z,20.24
2022-08-18T05:21:46.225Z,20.22
2022-08-18T05:24:17.619Z,20.24
2022-08-18T05:26:45.330Z,20.32
2022-08-18T05:29:18.775Z,20.23
2022-08-18T05:31:47.894Z,20.23
2022-08-18T05:34:14.910Z,20.24
2022-08-18T05:36:51.068Z,20.32
2022-08-18T05:39:29.619Z,20.40
2022-08-18T05:42:02.299Z,20.29
2022-08-18T05:44:32.580Z,20.36
2022-08-18T05:47:17.284Z,20.22
2022-08-18T05:49:47.975Z,20.30
2022-08-18T05:52:30.005Z,20.26
2022-08-18T05:55:20.050Z,20.42
2022-08-18T05:57:59.181Z,20.48
2022-08-18T06:00:27.143Z,20.30
2022-08-18T06:03:19.354Z,20.33
2022-08-18T06:06:01.274Z,20.55
2022-08-18T06:08:50.140Z,20.59
2022-08-18T06:11:17.158Z,20.37
2022-08-18T06:13:50.070Z,20.49
2022-08-18T06:17:00.955Z,20.35
2022-08-18T06:19:43.646Z,20.42
2022-08-18T06:22:32.459Z,20.52
2022-08-18T06:25:17.858Z,20.61
2022-08-18T06:27:55.484Z,20.67
2022-08-18T06:30:44.384Z,20.57
2022-08-18T06:33:42.795Z,20.60
2022-08-18T06:36:44.032Z,20.78
2022-08-18T06:39:26.485Z,20.86
2022-08-18T06:41:53.783Z,20.66
2022-08-18T06:44:30.328Z,20.73
2022-08-18T06:47:18.098Z,20.79
2022-08-18T06:49:59.633Z,20.89
2022-08-18T06:52:38.716Z,20.83
2022-08-18T06:55:07.796Z,20.72
2022-08-18T06:57:40.038Z,20.78
2022-08-18T07:00:23.291Z,20.87
2022-08-18T07:02:59.711Z,20.95
2022-08-18T07:05:28.875Z,20.95
2022-08-18T07:08:29.023Z,20.82
2022-08-18T07:10:55.731Z,20.87
2022-08-18T07:13:28.162Z,20.84
2022-08-18T07:16:15.950Z,20.93
2022-08-18T07:18:46.531Z,20.94
2022-08-18T07:21:26.434Z,20.85
2022-08-18T07:24:23.611Z,20.83
2022-08-18T07:27:10.667Z,20.91
2022-08-18T07:29:59.443Z,20.93
2022-08-18T07:32:50.954Z,21.01
2022-08-18T07:35:23.808Z,21.02
2022-08-18T07:38:18.650Z,21.12
2022-08-18T07:40:57.975Z,21.07
2022-08-18T07:43:33.679Z,20.91
2022-08-18T07:46:16.177Z,21.09
2022-08-18T07:48:42.705Z,21.21
2022-08-18T07:51:23.716Z,21.22
2022-08-18T07:53:56.885Z,21.28
2022-08-18T07:56:34.913Z,21.26
2022-08-18T07:59:10.927Z,21.33
2022-08-18T08:01:56.031Z,21.39
2022-08-18T08:04:34.770Z,21.46
2022-08-18T08:07:25.810Z,21.35
2022-08-18T08:09:52.404Z,21.47
2022-08-18T08:12:43.838Z,21.20
2022-08-18T08:15:17.600Z,21.33
2022-08-18T08:17:49.314Z,21.25
2022-08-18T08:20:45.686Z,21.24
2022-08-18T08:23:35.588Z,21.15
2022-08-18T08:26:32.217Z,21.23
2022-08-18T08:29:29.142Z,21.31
2022-08-18T08:32:10.665Z,21.35
2022-08-18T08:34:57.170Z,21.35
2022-08-18T08:37:43.386Z,21.26
2022-08-18T08:40:16.500Z,21.33
2022-08-18T08:42:50.787Z,21.29
2022-08-18T08:45:29.508Z,21.36
2022-08-18T08:48:08.767Z,21.36
2022-08-18T08:50:42.515Z,21.43
2022-08-18T08:53:26.198Z,21.42
2022-08-18T08:56:02.690Z,21.33
2022-08-18T08:58:53.790Z,21.06
2022-08-18T09:01:45.735Z,21.16
2022-08-18T09:04:33.849Z,21.17
2022-08-18T09:07:00.279Z,20.99
2022-08-18T09:09:45.486Z,20.92
2022-08-18T09:12:53.815Z,21.01
2022-08-18T09:15:41.256Z,20.97
2022-08-18T09:18:18.271Z,21.09
2022-08-18T09:20:53.292Z,21.02
2022-08-18T09:23:24.255Z,21.14
2022-08-18T09:25:54.577Z,21.24
2022-08-18T09:28:25.892Z,21.13
2022-08-18T09:31:01.680Z,21.22
2022-08-18T09:37:12.162Z,21.07
2022-08-18T09:40:12.442Z,21.18
2022-08-18T09:42:48.359Z,21.43
2022-08-18T09:45:33.645Z,21.62
2022-08-18T09:48:12.853Z,21.85
2022-08-18T09:50:53.542Z,21.78
2022-08-18T09:53:54.029Z,21.78
2022-08-18T09:56:54.460Z,22.07
2022-08-18T09:59:35.016Z,22.05
2022-08-18T10:02:20.311Z,22.19
2022-08-18T10:05:10.739Z,22.06
2022-08-18T10:07:43.212Z,22.58
2022-08-18T10:11:00.598Z,22.63
2022-08-18T10:13:29.691Z,22.86
2022-08-18T10:16:22.593Z,22.53
2022-08-18T10:19:04.441Z,22.63
2022-08-18T10:22:00.997Z,22.69
2022-08-18T10:24:53.827Z,22.90
2022-08-18T10:27:44.534Z,22.96
2022-08-18T10:33:58.174Z,22.84
2022-08-18T10:36:59.013Z,22.95
2022-08-18T10:40:09.197Z,23.22
2022-08-18T10:42:41.354Z,23.17
2022-08-18T10:45:25.486Z,22.90
2022-08-18T10:48:05.173Z,22.91
2022-08-18T10:50:51.190Z,22.62
2022-08-18T10:53:39.542Z,22.57
2022-08-18T10:56:30.169Z,22.77
2022-08-18T10:59:16.056Z,22.98
2022-08-18T11:02:23.371Z,23.67
2022-08-18T11:04:58.707Z,24.50
2022-08-18T11:07:34.399Z,24.73
2022-08-18T11:10:32.594Z,24.39
2022-08-18T11:13:15.901Z,24.41
2022-08-18T11:15:55.068Z,24.28
2022-08-18T11:18:42.641Z,24.56
2022-08-18T11:21:43.603Z,24.35
2022-08-18T11:24:12.005Z,24.37
2022-08-18T11:26:53.772Z,24.93
2022-08-18T11:29:32.858Z,24.93
2022-08-18T11:32:05.632Z,25.11
2022-08-18T11:34:41.344Z,25.32
2022-08-18T11:37:21.838Z,25.13
2022-08-18T11:39:51.407Z,25.29
2022-08-18T11:42:26.012Z,25.52
2022-08-18T11:44:55.267Z,25.74
2022-08-18T11:50:12.995Z,26.21
2022-08-18T11:55:38.848Z,26.09
2022-08-18T11:58:12.654Z,26.04
2022-08-18T12:03:37.244Z,26.22
2022-08-18T12:06:37.325Z,26.40
2022-08-18T12:09:54.086Z,26.46
2022-08-18T12:12:23.414Z,26.69
2022-08-18T12:15:13.954Z,26.67
2022-08-18T12:17:52.563Z,26.51
2022-08-18T12:20:19.997Z,26.13
2022-08-18T12:22:49.058Z,26.32
2022-08-18T12:28:04.701Z,26.43
2022-08-18T12:30:37.668Z,27.27
2022-08-18T12:33:12.089Z,27.97
2022-08-18T12:35:41.843Z,28.38
2022-08-18T12:40:55.600Z,28.02
2022-08-18T12:43:22.092Z,28.04
2022-08-18T12:45:48.887Z,27.64
2022-08-18T12:48:15.637Z,27.47
2022-08-18T12:50:54.641Z,28.09
2022-08-18T12:56:29.976Z,28.97
2022-08-18T12:58:58.963Z,29.49
2022-08-18T13:01:27.342Z,29.32
2022-08-18T13:04:12.967Z,29.26
2022-08-18T13:07:01.893Z,29.87
2022-08-18T13:09:53.495Z,30.17
2022-08-18T13:12:21.662Z,29.55
2022-08-18T13:14:49.701Z,30.21
2022-08-18T13:17:33.503Z,30.07
2022-08-18T13:20:04.377Z,30.53
2022-08-18T13:22:32.162Z,30.71
2022-08-18T13:25:03.793Z,31.35
2022-08-18T13:27:35.212Z,31.45
2022-08-18T13:30:29.872Z,30.14
2022-08-18T13:32:58.599Z,31.67
2022-08-18T13:35:26.698Z,30.93
2022-08-18T13:37:56.811Z,31.74
2022-08-18T13:40:23.517Z,32.56
2022-08-18T13:42:55.942Z,32.10
2022-08-18T13:45:25.586Z,31.37
2022-08-18T13:47:52.766Z,31.39
2022-08-18T13:50:20.822Z,30.71
2022-08-18T13:53:00.763Z,30.61
2022-08-18T13:55:28.968Z,29.95
2022-08-18T13:57:55.833Z,31.25
2022-08-18T14:00:29.637Z,32.05
2022-08-18T14:02:58.652Z,31.67
2022-08-18T14:05:36.430Z,31.54
2022-08-18T14:08:12.401Z,31.45
2022-08-18T14:10:49.696Z,31.35
2022-08-18T14:13:20.731Z,31.72
2022-08-18T14:15:54.753Z,31.41
2022-08-18T14:18:29.182Z,30.72
2022-08-18T14:21:17.071Z,30.82
2022-08-18T14:24:10.539Z,31.11
2022-08-18T14:26:52.073Z,31.16
2022-08-18T14:29:46.154Z,30.89
2022-08-18T14:32:07.046Z,31.63
2022-08-18T14:34:33.596Z,30.78
2022-08-18T14:37:00.192Z,31.34
2022-08-18T14:39:27.475Z,31.79
2022-08-18T14:41:54.916Z,30.92
2022-08-18T14:44:24.766Z,30.87
2022-08-18T14:46:57.468Z,30.92
2022-08-18T14:49:28.280Z,30.64
2022-08-18T14:51:57.878Z,31.78
2022-08-18T14:54:28.421Z,31.22
2022-08-18T14:56:55.781Z,31.56
2022-08-18T14:59:23.789Z,30.79
2022-08-18T15:01:52.459Z,31.29
2022-08-18T15:04:21.240Z,32.23
2022-08-18T15:06:56.389Z,32.71
2022-08-18T15:09:26.978Z,32.59
2022-08-18T15:11:56.323Z,32.65
2022-08-18T15:14:33.225Z,32.21
2022-08-18T15:17:02.861Z,31.45
2022-08-18T15:19:58.265Z,31.79
2022-08-18T15:22:34.708Z,32.50
2022-08-18T15:25:24.004Z,32.20
2022-08-18T15:27:52.363Z,31.60
2022-08-18T15:30:20.908Z,31.38
2022-08-18T15:32:49.933Z,32.29
2022-08-18T15:35:17.481Z,31.61
2022-08-18T15:37:47.736Z,31.28
2022-08-18T15:40:31.044Z,30.66
2022-08-18T15:43:10.154Z,31.42
2022-08-18T15:45:43.497Z,31.04
2022-08-18T15:48:24.758Z,31.42
2022-08-18T15:50:51.405Z,31.66
2022-08-18T15:53:29.673Z,31.41
2022-08-18T15:55:57.559Z,30.89
2022-08-18T15:58:26.711Z,30.96
2022-08-18T16:00:55.150Z,30.49
2022-08-18T16:03:21.854Z,30.39
2022-08-18T16:05:51.549Z,29.68
2022-08-18T16:08:25.048Z,30.08
2022-08-18T16:10:53.506Z,30.38
2022-08-18T16:13:20.442Z,30.25
2022-08-18T16:15:48.365Z,29.56
2022-08-18T16:18:17.135Z,29.60
2022-08-18T16:20:44.441Z,29.59
2022-08-18T16:23:12.544Z,29.51
2022-08-18T16:25:43.476Z,29.28
2022-08-18T16:28:13.070Z,29.70
2022-08-18T16:30:40.361Z,29.53
2022-08-18T16:33:07.049Z,29.37
2022-08-18T16:35:35.061Z,28.80
2022-08-18T16:38:09.465Z,28.75
2022-08-18T16:40:37.456Z,28.83
2022-08-18T16:43:04.861Z,29.19
2022-08-18T16:45:33.327Z,29.13
2022-08-18T16:48:00.683Z,28.95
2022-08-18T16:50:27.987Z,28.92
2022-08-18T16:52:55.121Z,28.95
2022-08-18T16:55:21.790Z,28.92
2022-08-18T16:58:07.148Z,28.47
2022-08-18T17:00:54.828Z,28.71
2022-08-18T17:03:41.445Z,28.52
2022-08-18T17:06:12.106Z,28.55
2022-08-18T17:08:39.481Z,28.58
2022-08-18T17:11:10.128Z,28.14
2022-08-18T17:13:39.133Z,27.89
2022-08-18T17:16:07.197Z,28.01
2022-08-18T17:18:33.771Z,27.69
2022-08-18T17:21:05.644Z,27.62
2022-08-18T17:23:33.400Z,27.77
2022-08-18T17:26:02.658Z,27.74
2022-08-18T17:28:50.195Z,27.80
2022-08-18T17:31:20.573Z,27.72
2022-08-18T17:33:47.013Z,27.72
2022-08-18T17:36:21.310Z,27.57
2022-08-18T17:38:57.226Z,27.43
2022-08-18T17:41:25.344Z,27.51
2022-08-18T17:43:55.376Z,27.57
2022-08-18T17:46:26.503Z,27.46
2022-08-18T17:49:03.586Z,27.41
2022-08-18T17:51:47.014Z,27.41
2022-08-18T17:54:36.322Z,27.41
2022-08-18T17:57:13.823Z,27.26
2022-08-18T17:59:53.748Z,27.27
2022-08-18T18:02:28.686Z,27.15
2022-08-18T18:04:57.736Z,27.10
2022-08-18T18:07:35.470Z,26.82
2022-08-18T18:10:10.150Z,26.64
2022-08-18T18:12:38.648Z,26.69
2022-08-18T18:15:11.737Z,26.54
2022-08-18T18:17:41.130Z,26.40
2022-08-18T18:20:32.625Z,26.08
2022-08-18T18:23:21.010Z,26.08
2022-08-18T18:25:48.482Z,26.17
2022-08-18T18:28:31.437Z,26.21
2022-08-18T18:31:00.977Z,26.20
2022-08-18T18:33:30.170Z,26.10
2022-08-18T18:35:59.442Z,26.17
2022-08-18T18:38:45.959Z,26.01
2022-08-18T18:41:12.413Z,25.74
2022-08-18T18:43:47.309Z,25.74
2022-08-18T18:46:29.809Z,25.75
2022-08-18T18:49:05.485Z,25.69
2022-08-18T18:52:11.315Z,25.93
2022-08-18T18:54:38.366Z,25.76
2022-08-18T18:57:12.943Z,25.72
2022-08-18T19:00:29.922Z,25.82
2022-08-18T19:03:06.068Z,25.78
2022-08-18T19:05:43.315Z,25.77
2022-08-18T19:08:39.722Z,25.58
2022-08-18T19:11:14.169Z,25.56
2022-08-18T19:13:54.528Z,25.34
2022-08-18T19:16:30.825Z,25.53
2022-08-18T19:19:37.678Z,25.42
2022-08-18T19:22:06.671Z,25.44
2022-08-18T19:24:53.841Z,25.50
2022-08-18T19:27:27.528Z,25.33
2022-08-18T19:29:58.642Z,25.45
2022-08-18T19:32:35.594Z,25.44
2022-08-18T19:35:11.865Z,25.35
2022-08-18T19:37:54.513Z,25.25
2022-08-18T19:40:30.249Z,25.23
2022-08-18T19:43:15.572Z,25.19
2022-08-18T19:46:10.919Z,25.22
2022-08-18T19:48:53.401Z,25.15
2022-08-18T19:51:32.216Z,25.01
2022-08-18T19:54:32.492Z,24.94
2022-08-18T19:57:09.302Z,24.99
2022-08-18T20:00:22.701Z,24.74
2022-08-18T20:03:18.459Z,24.89
2022-08-18T20:06:33.933Z,24.71
2022-08-18T20:09:25.689Z,24.73
2022-08-18T20:12:22.058Z,24.69
2022-08-18T20:15:01.997Z,24.70
2022-08-18T20:17:28.577Z,24.62
2022-08-18T20:19:54.994Z,24.68
2022-08-18T20:22:24.656Z,24.55
2022-08-18T20:25:08.185Z,24.54
2022-08-18T20:27:49.278Z,24.53
2022-08-18T20:30:45.381Z,24.44
2022-08-18T20:33:24.070Z,24.43
2022-08-18T20:36:20.143Z,24.38
2022-08-18T20:38:50.305Z,24.36
2022-08-18T20:41:19.713Z,24.36
2022-08-18T20:43:50.242Z,24.29
2022-08-18T20:46:33.722Z,24.30
2022-08-18T20:49:42.449Z,24.27
2022-08-18T20:52:34.759Z,24.21
2022-08-18T20:55:35.089Z,24.11
2022-08-18T20:58:12.040Z,24.07
2022-08-18T21:00:43.039Z,24.10
2022-08-18T21:03:15.653Z,24.07
2022-08-18T21:05:45.364Z,24.00
2022-08-18T21:08:16.029Z,23.96
2022-08-18T21:10:50.709Z,23.97
2022-08-18T21:13:30.910Z,23.89
2022-08-18T21:15:57.623Z,23.82
2022-08-18T21:18:25.010Z,23.86
2022-08-18T21:20:55.021Z,23.78
2022-08-18T21:23:30.831Z,23.83
2022-08-18T21:26:06.332Z,23.73
2022-08-18T21:28:36.569Z,23.60
2022-08-18T21:31:29.131Z,23.60
2022-08-18T21:34:28.474Z,23.75
2022-08-18T21:36:57.921Z,23.60
2022-08-18T21:39:24.806Z,23.63
2022-08-18T21:41:54.524Z,23.52
2022-08-18T21:44:27.226Z,23.45
2022-08-18T21:47:23.939Z,23.44
2022-08-18T21:50:14.813Z,23.46
2022-08-18T21:52:59.956Z,23.37
2022-08-18T21:55:31.700Z,23.36
2022-08-18T21:58:02.359Z,23.44
2022-08-18T22:00:36.098Z,23.35
2022-08-18T22:03:24.735Z,23.21
2022-08-18T22:06:12.237Z,23.22
2022-08-18T22:09:22.151Z,23.20
2022-08-18T22:12:07.667Z,23.20
2022-08-18T22:14:54.545Z,23.07
2022-08-18T22:17:33.198Z,23.07
2022-08-18T22:20:36.907Z,22.97
2022-08-18T22:23:25.082Z,22.95
2022-08-18T22:25:52.414Z,22.87
2022-08-18T22:28:24.083Z,22.87
2022-08-18T22:30:53.873Z,22.81
2022-08-18T22:33:20.341Z,22.84
2022-08-18T22:35:54.771Z,22.80
2022-08-18T22:38:22.023Z,22.67
2022-08-18T22:40:49.012Z,22.69
2022-08-18T22:43:16.491Z,22.51
2022-08-18T22:45:43.089Z,22.56
2022-08-18T22:48:09.521Z,22.53
2022-08-18T22:50:36.292Z,22.49
2022-08-18T22:53:02.778Z,22.52
2022-08-18T22:55:29.242Z,22.48
2022-08-18T22:57:57.022Z,22.44
2022-08-18T23:00:25.410Z,22.39
2022-08-18T23:02:52.733Z,22.32
2022-08-18T23:05:19.403Z,22.32
2022-08-18T23:07:46.119Z,22.36
2022-08-18T23:10:14.367Z,22.30
2022-08-18T23:12:46.948Z,22.25
2022-08-18T23:15:15.081Z,22.26
2022-08-18T23:17:42.990Z,22.23
2022-08-18T23:20:17.517Z,22.22
2022-08-18T23:22:45.641Z,22.17
2022-08-18T23:25:13.269Z,22.15
2022-08-18T23:27:40.823Z,22.17
2022-08-18T23:30:07.871Z,22.15
2022-08-18T23:32:34.406Z,22.10
2022-08-18T23:35:01.068Z,22.13
2022-08-18T23:37:27.650Z,22.05
2022-08-18T23:39:55.749Z,22.07
2022-08-18T23:42:23.089Z,22.00
2022-08-18T23:44:49.926Z,21.90
2022-08-18T23:47:20.512Z,21.89
2022-08-18T23:49:46.985Z,21.93
2022-08-18T23:52:13.642Z,21.89
2022-08-18T23:54:40.265Z,21.92
2022-08-18T23:57:07.030Z,21.96
2022-08-18T23:59:33.507Z,21.96
